F/V Barracuda II — FMIF — position and weather

sailwx.info

Track history (hours):
 
Tides and Currents Weather Stations Pressure Air Temp Water Temp Dewpoint Dewpoint Depression Visibility Wind Speed Wind Dir Waves Ship Positions

F/V Barracuda II

Last reported at 2017-Jan-20 09:29 UTC. Time now 2017-Jan-20 09:56 UTC.
Position N 43°22' E 004°27'.

Length 18 m.

Type: Fishing. MMSI: 228236800.

Date/timePositionNaut miles runAvg speedWind from/ knotsBaromVisibWave heightAir tempDewpointWater temp
2017-Jan-20 09:29N 43°22' E 004°27'1 0.8
2017-Jan-20 08:31N 43°23' E 004°27'16 0.9
2017-Jan-19 15:21N 43°29' E 004°07'18 5.9
2017-Jan-19 12:14N 43°14' E 004°21'6 3.5
2017-Jan-19 10:23N 43°11' E 004°28'5 2.6
2017-Jan-19 08:30N 43°15' E 004°32'4 3.9
2017-Jan-19 07:34N 43°15' E 004°27'4 3.9
2017-Jan-19 06:33N 43°17' E 004°22'4 3.5
2017-Jan-19 05:33N 43°19' E 004°18'16 0.3
2017-Jan-17 07:20N 43°17' E 004°40'17 0.8
2017-Jan-16 09:26N 43°16' E 004°17'3 3.6
2017-Jan-16 08:30N 43°17' E 004°13'3 1.3
2017-Jan-16 06:06N 43°18' E 004°17'  
2017-Jan-12 15:33N 43°30' E 004°06'15 6.5
2017-Jan-12 13:18N 43°16' E 004°15'3 3.9
2017-Jan-12 12:33N 43°14' E 004°18'5 3.7
2017-Jan-12 11:13N 43°12' E 004°24'6 3.0
2017-Jan-12 09:07N 43°12' E 004°33'3 3.4
2017-Jan-12 08:09N 43°15' E 004°31'3 3.7
2017-Jan-12 07:12N 43°16' E 004°27'3 4.0
2017-Jan-12 06:21N 43°16' E 004°22'4 4.0
2017-Jan-12 05:25N 43°18' E 004°17'4 4.0
2017-Jan-12 04:31N 43°20' E 004°14'  
Track history (hours):
 
Tides and Currents Weather Stations Pressure Air Temp Water Temp Dewpoint Dewpoint Depression Visibility Wind Speed Wind Dir Waves Ship Positions

F/V Barracuda II

Last reported at 2017-Jan-20 09:29 UTC. Time now 2017-Jan-20 09:56 UTC.
Position N 43°22' E 004°27'.

Length 18 m.

Type: Fishing. MMSI: 228236800.

Date/timePositionNaut miles runAvg speedWind from/ knotsBaromVisibWave heightAir tempDewpointWater temp
2017-Jan-20 09:29N 43°22' E 004°27'1 0.8
2017-Jan-20 08:31N 43°23' E 004°27'16 0.9
2017-Jan-19 15:21N 43°29' E 004°07'18 5.9
2017-Jan-19 12:14N 43°14' E 004°21'6 3.5
2017-Jan-19 10:23N 43°11' E 004°28'5 2.6
2017-Jan-19 08:30N 43°15' E 004°32'4 3.9
2017-Jan-19 07:34N 43°15' E 004°27'4 3.9
2017-Jan-19 06:33N 43°17' E 004°22'4 3.5
2017-Jan-19 05:33N 43°19' E 004°18'16 0.3
2017-Jan-17 07:20N 43°17' E 004°40'17 0.8
2017-Jan-16 09:26N 43°16' E 004°17'3 3.6
2017-Jan-16 08:30N 43°17' E 004°13'3 1.3
2017-Jan-16 06:06N 43°18' E 004°17'  
2017-Jan-12 15:33N 43°30' E 004°06'15 6.5
2017-Jan-12 13:18N 43°16' E 004°15'3 3.9
2017-Jan-12 12:33N 43°14' E 004°18'5 3.7
2017-Jan-12 11:13N 43°12' E 004°24'6 3.0
2017-Jan-12 09:07N 43°12' E 004°33'3 3.4
2017-Jan-12 08:09N 43°15' E 004°31'3 3.7
2017-Jan-12 07:12N 43°16' E 004°27'3 4.0
2017-Jan-12 06:21N 43°16' E 004°22'4 4.0
2017-Jan-12 05:25N 43°18' E 004°17'4 4.0
2017-Jan-12 04:31N 43°20' E 004°14'  

Dump ship's entire track history